sensor_id;sensor_type;location;lat;lon;timestamp;P1;durP1;ratioP1;P2;durP2;ratioP2
61907;SDS011;47864;52.526;19.672;2023-09-19T00:01:28;18.38;;;13.35;;
61907;SDS011;47864;52.526;19.672;2023-09-19T00:03:30;22.50;;;13.07;;
61907;SDS011;47864;52.526;19.672;2023-09-19T00:05:35;18.70;;;12.90;;
61907;SDS011;47864;52.526;19.672;2023-09-19T00:07:38;20.80;;;13.65;;
61907;SDS011;47864;52.526;19.672;2023-09-19T00:09:39;17.55;;;13.20;;
61907;SDS011;47864;52.526;19.672;2023-09-19T00:11:41;18.38;;;12.80;;
61907;SDS011;47864;52.526;19.672;2023-09-19T00:13:42;17.20;;;12.52;;
61907;SDS011;47864;52.526;19.672;2023-09-19T00:15:45;18.77;;;13.18;;
61907;SDS011;47864;52.526;19.672;2023-09-19T00:17:48;20.92;;;13.98;;
61907;SDS011;47864;52.526;19.672;2023-09-19T00:19:49;18.08;;;13.18;;
61907;SDS011;47864;52.526;19.672;2023-09-19T00:21:51;17.17;;;12.95;;
61907;SDS011;47864;52.526;19.672;2023-09-19T00:23:53;17.30;;;13.40;;
61907;SDS011;47864;52.526;19.672;2023-09-19T00:25:54;20.60;;;13.43;;
61907;SDS011;47864;52.526;19.672;2023-09-19T00:28:00;17.42;;;13.43;;
61907;SDS011;47864;52.526;19.672;2023-09-19T00:30:01;18.25;;;13.55;;
61907;SDS011;47864;52.526;19.672;2023-09-19T00:32:03;20.38;;;13.63;;
61907;SDS011;47864;52.526;19.672;2023-09-19T00:34:05;21.92;;;13.18;;
61907;SDS011;47864;52.526;19.672;2023-09-19T00:36:06;22.25;;;13.18;;
61907;SDS011;47864;52.526;19.672;2023-09-19T00:38:08;19.08;;;12.93;;
61907;SDS011;47864;52.526;19.672;2023-09-19T00:40:10;19.95;;;13.00;;
61907;SDS011;47864;52.526;19.672;2023-09-19T00:42:17;18.95;;;13.35;;
61907;SDS011;47864;52.526;19.672;2023-09-19T00:44:20;20.00;;;13.43;;
61907;SDS011;47864;52.526;19.672;2023-09-19T00:46:22;18.85;;;13.23;;
61907;SDS011;47864;52.526;19.672;2023-09-19T00:48:24;19.05;;;13.05;;
61907;SDS011;47864;52.526;19.672;2023-09-19T00:50:27;16.75;;;12.45;;
61907;SDS011;47864;52.526;19.672;2023-09-19T00:52:28;16.30;;;12.80;;
61907;SDS011;47864;52.526;19.672;2023-09-19T00:54:30;21.15;;;13.10;;
61907;SDS011;47864;52.526;19.672;2023-09-19T00:56:32;18.38;;;13.35;;
61907;SDS011;47864;52.526;19.672;2023-09-19T00:58:34;21.38;;;13.25;;
61907;SDS011;47864;52.526;19.672;2023-09-19T01:00:36;18.63;;;13.50;;
61907;SDS011;47864;52.526;19.672;2023-09-19T01:02:38;18.70;;;13.52;;
61907;SDS011;47864;52.526;19.672;2023-09-19T01:04:40;20.35;;;14.20;;
61907;SDS011;47864;52.526;19.672;2023-09-19T01:06:42;19.40;;;14.48;;
61907;SDS011;47864;52.526;19.672;2023-09-19T01:08:44;20.90;;;14.57;;
61907;SDS011;47864;52.526;19.672;2023-09-19T01:10:52;21.05;;;13.23;;
61907;SDS011;47864;52.526;19.672;2023-09-19T01:13:13;24.23;;;14.00;;
61907;SDS011;47864;52.526;19.672;2023-09-19T01:17:43;19.80;;;13.52;;
61907;SDS011;47864;52.526;19.672;2023-09-19T01:24:10;19.75;;;12.95;;
61907;SDS011;47864;52.526;19.672;2023-09-19T01:26:43;18.50;;;14.02;;
61907;SDS011;47864;52.526;19.672;2023-09-19T01:29:01;20.40;;;14.35;;
61907;SDS011;47864;52.526;19.672;2023-09-19T01:31:14;18.25;;;13.30;;
61907;SDS011;47864;52.526;19.672;2023-09-19T01:33:16;18.70;;;13.98;;
61907;SDS011;47864;52.526;19.672;2023-09-19T01:35:18;19.73;;;14.85;;
61907;SDS011;47864;52.526;19.672;2023-09-19T01:37:20;21.25;;;14.38;;
61907;SDS011;47864;52.526;19.672;2023-09-19T01:39:22;21.05;;;14.63;;
61907;SDS011;47864;52.526;19.672;2023-09-19T01:41:26;19.73;;;13.82;;
61907;SDS011;47864;52.526;19.672;2023-09-19T01:43:36;19.27;;;13.73;;
61907;SDS011;47864;52.526;19.672;2023-09-19T01:48:23;20.95;;;14.73;;
61907;SDS011;47864;52.526;19.672;2023-09-19T01:53:05;18.05;;;13.60;;
61907;SDS011;47864;52.526;19.672;2023-09-19T01:55:11;18.27;;;13.70;;
61907;SDS011;47864;52.526;19.672;2023-09-19T01:57:17;20.17;;;14.32;;
61907;SDS011;47864;52.526;19.672;2023-09-19T01:59:28;19.95;;;14.85;;
61907;SDS011;47864;52.526;19.672;2023-09-19T02:01:36;19.30;;;14.68;;
61907;SDS011;47864;52.526;19.672;2023-09-19T02:03:39;22.57;;;14.40;;
61907;SDS011;47864;52.526;19.672;2023-09-19T02:05:47;17.48;;;13.52;;
61907;SDS011;47864;52.526;19.672;2023-09-19T02:07:50;20.83;;;14.57;;
61907;SDS011;47864;52.526;19.672;2023-09-19T02:09:53;19.90;;;14.50;;
61907;SDS011;47864;52.526;19.672;2023-09-19T02:11:54;21.33;;;14.50;;
61907;SDS011;47864;52.526;19.672;2023-09-19T02:13:56;19.65;;;14.50;;
61907;SDS011;47864;52.526;19.672;2023-09-19T02:15:57;19.25;;;15.00;;
61907;SDS011;47864;52.526;19.672;2023-09-19T02:18:00;20.90;;;16.42;;
61907;SDS011;47864;52.526;19.672;2023-09-19T02:20:02;22.23;;;17.35;;
61907;SDS011;47864;52.526;19.672;2023-09-19T02:22:04;22.90;;;18.17;;
61907;SDS011;47864;52.526;19.672;2023-09-19T02:24:06;22.00;;;17.13;;
61907;SDS011;47864;52.526;19.672;2023-09-19T02:26:08;22.23;;;16.75;;
61907;SDS011;47864;52.526;19.672;2023-09-19T02:28:09;24.65;;;16.98;;
61907;SDS011;47864;52.526;19.672;2023-09-19T02:30:11;21.85;;;16.20;;
61907;SDS011;47864;52.526;19.672;2023-09-19T02:32:13;21.10;;;15.32;;
61907;SDS011;47864;52.526;19.672;2023-09-19T02:34:15;21.73;;;16.80;;
61907;SDS011;47864;52.526;19.672;2023-09-19T02:36:16;21.63;;;14.52;;
61907;SDS011;47864;52.526;19.672;2023-09-19T02:38:21;19.33;;;15.02;;
61907;SDS011;47864;52.526;19.672;2023-09-19T02:40:22;25.35;;;15.05;;
61907;SDS011;47864;52.526;19.672;2023-09-19T02:42:24;19.63;;;15.25;;
61907;SDS011;47864;52.526;19.672;2023-09-19T02:44:25;22.08;;;15.57;;
61907;SDS011;47864;52.526;19.672;2023-09-19T02:46:27;20.13;;;15.13;;
61907;SDS011;47864;52.526;19.672;2023-09-19T02:48:29;21.00;;;15.13;;
61907;SDS011;47864;52.526;19.672;2023-09-19T02:50:31;20.70;;;15.20;;
61907;SDS011;47864;52.526;19.672;2023-09-19T02:52:33;22.25;;;15.25;;
61907;SDS011;47864;52.526;19.672;2023-09-19T02:54:35;19.35;;;15.18;;
61907;SDS011;47864;52.526;19.672;2023-09-19T02:56:36;19.85;;;15.23;;
61907;SDS011;47864;52.526;19.672;2023-09-19T02:58:38;19.55;;;15.55;;
61907;SDS011;47864;52.526;19.672;2023-09-19T03:00:40;22.65;;;16.05;;
61907;SDS011;47864;52.526;19.672;2023-09-19T03:02:41;19.45;;;15.20;;
61907;SDS011;47864;52.526;19.672;2023-09-19T03:04:43;21.70;;;15.48;;
61907;SDS011;47864;52.526;19.672;2023-09-19T03:06:45;20.08;;;14.77;;
61907;SDS011;47864;52.526;19.672;2023-09-19T03:08:47;20.92;;;14.73;;
61907;SDS011;47864;52.526;19.672;2023-09-19T03:10:49;25.92;;;15.43;;
61907;SDS011;47864;52.526;19.672;2023-09-19T03:12:51;24.00;;;16.75;;
61907;SDS011;47864;52.526;19.672;2023-09-19T03:14:53;20.52;;;15.20;;
61907;SDS011;47864;52.526;19.672;2023-09-19T03:16:54;23.42;;;15.98;;
61907;SDS011;47864;52.526;19.672;2023-09-19T03:18:56;19.70;;;14.65;;
61907;SDS011;47864;52.526;19.672;2023-09-19T03:20:57;19.95;;;15.75;;
61907;SDS011;47864;52.526;19.672;2023-09-19T03:22:59;27.35;;;15.63;;
61907;SDS011;47864;52.526;19.672;2023-09-19T03:25:00;22.17;;;15.15;;
61907;SDS011;47864;52.526;19.672;2023-09-19T03:27:02;27.50;;;17.17;;
61907;SDS011;47864;52.526;19.672;2023-09-19T03:29:04;23.63;;;16.38;;
61907;SDS011;47864;52.526;19.672;2023-09-19T03:31:06;23.55;;;16.67;;
61907;SDS011;47864;52.526;19.672;2023-09-19T03:33:08;18.88;;;15.70;;
61907;SDS011;47864;52.526;19.672;2023-09-19T03:35:09;26.75;;;16.52;;
61907;SDS011;47864;52.526;19.672;2023-09-19T03:37:11;23.40;;;15.55;;
61907;SDS011;47864;52.526;19.672;2023-09-19T03:39:13;26.95;;;16.13;;
61907;SDS011;47864;52.526;19.672;2023-09-19T03:41:14;23.23;;;17.13;;
61907;SDS011;47864;52.526;19.672;2023-09-19T03:43:16;32.03;;;19.65;;
61907;SDS011;47864;52.526;19.672;2023-09-19T03:45:17;27.52;;;17.48;;
61907;SDS011;47864;52.526;19.672;2023-09-19T03:47:19;24.95;;;17.10;;
61907;SDS011;47864;52.526;19.672;2023-09-19T03:49:21;20.63;;;16.38;;
61907;SDS011;47864;52.526;19.672;2023-09-19T03:51:22;25.58;;;17.25;;
61907;SDS011;47864;52.526;19.672;2023-09-19T03:53:24;25.30;;;17.17;;
61907;SDS011;47864;52.526;19.672;2023-09-19T03:55:25;28.48;;;18.20;;
61907;SDS011;47864;52.526;19.672;2023-09-19T03:57:27;25.50;;;18.38;;
61907;SDS011;47864;52.526;19.672;2023-09-19T03:59:28;26.38;;;16.70;;
61907;SDS011;47864;52.526;19.672;2023-09-19T04:01:30;24.13;;;16.58;;
61907;SDS011;47864;52.526;19.672;2023-09-19T04:03:34;22.88;;;16.88;;
61907;SDS011;47864;52.526;19.672;2023-09-19T04:05:37;21.50;;;15.90;;
61907;SDS011;47864;52.526;19.672;2023-09-19T04:07:39;20.10;;;15.68;;
61907;SDS011;47864;52.526;19.672;2023-09-19T04:09:40;21.92;;;16.00;;
61907;SDS011;47864;52.526;19.672;2023-09-19T04:11:42;19.02;;;16.30;;
61907;SDS011;47864;52.526;19.672;2023-09-19T04:13:44;23.60;;;16.45;;
61907;SDS011;47864;52.526;19.672;2023-09-19T04:15:45;21.83;;;16.63;;
61907;SDS011;47864;52.526;19.672;2023-09-19T04:17:47;24.65;;;16.17;;
61907;SDS011;47864;52.526;19.672;2023-09-19T04:19:49;25.58;;;16.40;;
61907;SDS011;47864;52.526;19.672;2023-09-19T04:21:50;22.77;;;16.88;;
61907;SDS011;47864;52.526;19.672;2023-09-19T04:23:52;23.13;;;15.88;;
61907;SDS011;47864;52.526;19.672;2023-09-19T04:25:54;27.35;;;15.90;;
61907;SDS011;47864;52.526;19.672;2023-09-19T04:27:55;23.52;;;16.10;;
61907;SDS011;47864;52.526;19.672;2023-09-19T04:29:57;26.27;;;16.50;;
61907;SDS011;47864;52.526;19.672;2023-09-19T04:31:59;28.45;;;17.05;;
61907;SDS011;47864;52.526;19.672;2023-09-19T04:34:00;24.83;;;16.23;;
61907;SDS011;47864;52.526;19.672;2023-09-19T04:36:02;24.08;;;16.67;;
61907;SDS011;47864;52.526;19.672;2023-09-19T04:38:24;21.45;;;16.52;;
61907;SDS011;47864;52.526;19.672;2023-09-19T04:40:25;22.63;;;17.20;;
61907;SDS011;47864;52.526;19.672;2023-09-19T04:42:27;24.58;;;17.02;;
61907;SDS011;47864;52.526;19.672;2023-09-19T04:44:28;24.17;;;17.05;;
61907;SDS011;47864;52.526;19.672;2023-09-19T04:46:30;23.90;;;17.63;;
61907;SDS011;47864;52.526;19.672;2023-09-19T04:48:32;25.55;;;17.08;;
61907;SDS011;47864;52.526;19.672;2023-09-19T04:50:33;20.75;;;16.85;;
61907;SDS011;47864;52.526;19.672;2023-09-19T04:52:35;26.33;;;17.77;;
61907;SDS011;47864;52.526;19.672;2023-09-19T04:54:36;25.10;;;17.23;;
61907;SDS011;47864;52.526;19.672;2023-09-19T04:56:38;24.40;;;17.35;;
61907;SDS011;47864;52.526;19.672;2023-09-19T04:58:39;22.65;;;17.08;;
61907;SDS011;47864;52.526;19.672;2023-09-19T05:00:41;26.92;;;16.75;;
61907;SDS011;47864;52.526;19.672;2023-09-19T05:02:43;24.60;;;17.42;;
61907;SDS011;47864;52.526;19.672;2023-09-19T05:04:44;27.73;;;17.38;;
61907;SDS011;47864;52.526;19.672;2023-09-19T05:06:46;22.08;;;16.77;;
61907;SDS011;47864;52.526;19.672;2023-09-19T05:08:48;23.92;;;17.02;;
61907;SDS011;47864;52.526;19.672;2023-09-19T05:10:49;24.90;;;16.92;;
61907;SDS011;47864;52.526;19.672;2023-09-19T05:12:54;25.13;;;16.58;;
61907;SDS011;47864;52.526;19.672;2023-09-19T05:14:56;23.33;;;16.77;;
61907;SDS011;47864;52.526;19.672;2023-09-19T05:16:57;20.95;;;15.75;;
61907;SDS011;47864;52.526;19.672;2023-09-19T05:18:59;26.40;;;15.20;;
61907;SDS011;47864;52.526;19.672;2023-09-19T05:21:01;23.83;;;15.02;;
61907;SDS011;47864;52.526;19.672;2023-09-19T05:23:07;20.73;;;14.48;;
61907;SDS011;47864;52.526;19.672;2023-09-19T05:25:09;20.73;;;14.43;;
61907;SDS011;47864;52.526;19.672;2023-09-19T05:27:11;15.20;;;12.98;;
61907;SDS011;47864;52.526;19.672;2023-09-19T05:29:12;20.63;;;12.68;;
61907;SDS011;47864;52.526;19.672;2023-09-19T05:31:14;18.80;;;13.32;;
61907;SDS011;47864;52.526;19.672;2023-09-19T05:33:16;24.15;;;13.70;;
61907;SDS011;47864;52.526;19.672;2023-09-19T05:35:17;17.67;;;12.57;;
61907;SDS011;47864;52.526;19.672;2023-09-19T05:37:19;20.10;;;13.50;;
61907;SDS011;47864;52.526;19.672;2023-09-19T05:39:20;17.48;;;13.35;;
61907;SDS011;47864;52.526;19.672;2023-09-19T05:41:22;16.88;;;12.85;;
61907;SDS011;47864;52.526;19.672;2023-09-19T05:43:23;18.20;;;13.15;;
61907;SDS011;47864;52.526;19.672;2023-09-19T05:45:25;20.75;;;13.15;;
61907;SDS011;47864;52.526;19.672;2023-09-19T05:47:26;17.52;;;12.63;;
61907;SDS011;47864;52.526;19.672;2023-09-19T05:49:28;17.33;;;12.23;;
61907;SDS011;47864;52.526;19.672;2023-09-19T05:51:30;19.05;;;12.23;;
61907;SDS011;47864;52.526;19.672;2023-09-19T05:53:31;20.27;;;13.43;;
61907;SDS011;47864;52.526;19.672;2023-09-19T05:55:33;20.65;;;13.32;;
61907;SDS011;47864;52.526;19.672;2023-09-19T05:57:35;24.58;;;13.65;;
61907;SDS011;47864;52.526;19.672;2023-09-19T05:59:36;21.40;;;13.60;;
61907;SDS011;47864;52.526;19.672;2023-09-19T06:01:38;26.65;;;14.30;;
61907;SDS011;47864;52.526;19.672;2023-09-19T06:03:39;17.55;;;12.82;;
61907;SDS011;47864;52.526;19.672;2023-09-19T06:05:41;20.25;;;13.35;;
61907;SDS011;47864;52.526;19.672;2023-09-19T06:07:43;20.50;;;14.23;;
61907;SDS011;47864;52.526;19.672;2023-09-19T06:09:44;19.38;;;12.55;;
61907;SDS011;47864;52.526;19.672;2023-09-19T06:11:46;19.80;;;13.05;;
61907;SDS011;47864;52.526;19.672;2023-09-19T06:13:47;18.60;;;13.48;;
61907;SDS011;47864;52.526;19.672;2023-09-19T06:15:49;22.50;;;13.60;;
61907;SDS011;47864;52.526;19.672;2023-09-19T06:17:54;23.10;;;13.10;;
61907;SDS011;47864;52.526;19.672;2023-09-19T06:19:56;20.45;;;13.15;;
61907;SDS011;47864;52.526;19.672;2023-09-19T06:21:58;19.73;;;11.95;;
61907;SDS011;47864;52.526;19.672;2023-09-19T06:24:00;21.50;;;12.00;;
61907;SDS011;47864;52.526;19.672;2023-09-19T06:26:01;20.15;;;12.57;;
61907;SDS011;47864;52.526;19.672;2023-09-19T06:28:03;18.83;;;11.73;;
61907;SDS011;47864;52.526;19.672;2023-09-19T06:30:05;20.52;;;11.73;;
61907;SDS011;47864;52.526;19.672;2023-09-19T06:32:10;16.50;;;10.52;;
61907;SDS011;47864;52.526;19.672;2023-09-19T06:34:11;19.42;;;10.20;;
61907;SDS011;47864;52.526;19.672;2023-09-19T06:36:13;16.42;;;9.80;;
61907;SDS011;47864;52.526;19.672;2023-09-19T06:38:14;17.52;;;10.35;;
61907;SDS011;47864;52.526;19.672;2023-09-19T06:40:17;13.98;;;10.05;;
61907;SDS011;47864;52.526;19.672;2023-09-19T06:42:18;20.23;;;10.63;;
61907;SDS011;47864;52.526;19.672;2023-09-19T06:44:22;16.33;;;10.18;;
61907;SDS011;47864;52.526;19.672;2023-09-19T06:46:24;16.48;;;10.30;;
61907;SDS011;47864;52.526;19.672;2023-09-19T06:48:26;16.58;;;10.40;;
61907;SDS011;47864;52.526;19.672;2023-09-19T06:50:27;18.08;;;9.73;;
61907;SDS011;47864;52.526;19.672;2023-09-19T06:52:29;16.65;;;10.88;;
61907;SDS011;47864;52.526;19.672;2023-09-19T06:54:31;16.52;;;9.95;;
61907;SDS011;47864;52.526;19.672;2023-09-19T06:56:33;14.02;;;10.32;;
61907;SDS011;47864;52.526;19.672;2023-09-19T06:58:34;13.60;;;9.43;;
61907;SDS011;47864;52.526;19.672;2023-09-19T07:00:36;15.57;;;9.45;;
61907;SDS011;47864;52.526;19.672;2023-09-19T07:02:38;17.10;;;9.63;;
61907;SDS011;47864;52.526;19.672;2023-09-19T07:04:39;12.88;;;8.90;;
61907;SDS011;47864;52.526;19.672;2023-09-19T07:06:41;16.67;;;9.55;;
61907;SDS011;47864;52.526;19.672;2023-09-19T07:08:43;13.27;;;8.73;;
61907;SDS011;47864;52.526;19.672;2023-09-19T07:10:44;14.52;;;9.18;;
61907;SDS011;47864;52.526;19.672;2023-09-19T07:12:46;16.35;;;9.18;;
61907;SDS011;47864;52.526;19.672;2023-09-19T07:14:48;15.65;;;8.57;;
61907;SDS011;47864;52.526;19.672;2023-09-19T07:16:49;14.48;;;8.93;;
61907;SDS011;47864;52.526;19.672;2023-09-19T07:18:51;14.15;;;8.60;;
61907;SDS011;47864;52.526;19.672;2023-09-19T07:20:56;12.13;;;8.18;;
61907;SDS011;47864;52.526;19.672;2023-09-19T07:22:58;11.30;;;8.52;;
61907;SDS011;47864;52.526;19.672;2023-09-19T07:25:00;17.55;;;7.57;;
61907;SDS011;47864;52.526;19.672;2023-09-19T07:27:02;12.00;;;7.85;;
61907;SDS011;47864;52.526;19.672;2023-09-19T07:29:03;15.88;;;8.27;;
61907;SDS011;47864;52.526;19.672;2023-09-19T07:31:05;14.68;;;8.15;;
61907;SDS011;47864;52.526;19.672;2023-09-19T07:33:07;14.65;;;8.65;;
61907;SDS011;47864;52.526;19.672;2023-09-19T07:35:09;13.35;;;8.45;;
61907;SDS011;47864;52.526;19.672;2023-09-19T07:37:10;11.50;;;8.10;;
61907;SDS011;47864;52.526;19.672;2023-09-19T07:39:11;11.35;;;7.53;;
61907;SDS011;47864;52.526;19.672;2023-09-19T07:41:23;14.38;;;8.60;;
61907;SDS011;47864;52.526;19.672;2023-09-19T07:43:25;14.60;;;8.90;;
61907;SDS011;47864;52.526;19.672;2023-09-19T07:45:30;15.43;;;8.90;;
61907;SDS011;47864;52.526;19.672;2023-09-19T07:47:32;14.38;;;8.68;;
61907;SDS011;47864;52.526;19.672;2023-09-19T07:49:34;14.15;;;8.90;;
61907;SDS011;47864;52.526;19.672;2023-09-19T07:51:36;15.43;;;8.50;;
61907;SDS011;47864;52.526;19.672;2023-09-19T07:53:37;16.13;;;10.25;;
61907;SDS011;47864;52.526;19.672;2023-09-19T07:55:39;17.23;;;10.05;;
61907;SDS011;47864;52.526;19.672;2023-09-19T07:57:41;17.45;;;8.90;;
61907;SDS011;47864;52.526;19.672;2023-09-19T07:59:42;17.13;;;10.13;;
61907;SDS011;47864;52.526;19.672;2023-09-19T08:01:44;15.27;;;9.60;;
61907;SDS011;47864;52.526;19.672;2023-09-19T08:03:46;13.30;;;9.75;;
61907;SDS011;47864;52.526;19.672;2023-09-19T08:05:48;15.40;;;9.97;;
61907;SDS011;47864;52.526;19.672;2023-09-19T08:07:50;16.92;;;9.77;;
61907;SDS011;47864;52.526;19.672;2023-09-19T08:09:52;13.55;;;9.55;;
61907;SDS011;47864;52.526;19.672;2023-09-19T08:11:53;13.93;;;10.18;;
61907;SDS011;47864;52.526;19.672;2023-09-19T08:13:55;17.25;;;9.68;;
61907;SDS011;47864;52.526;19.672;2023-09-19T08:15:56;16.58;;;10.27;;
61907;SDS011;47864;52.526;19.672;2023-09-19T08:17:58;18.48;;;9.68;;
61907;SDS011;47864;52.526;19.672;2023-09-19T08:20:00;15.00;;;9.95;;
61907;SDS011;47864;52.526;19.672;2023-09-19T08:22:01;16.77;;;9.65;;
61907;SDS011;47864;52.526;19.672;2023-09-19T08:24:03;17.00;;;8.93;;
61907;SDS011;47864;52.526;19.672;2023-09-19T08:26:05;21.20;;;9.95;;
61907;SDS011;47864;52.526;19.672;2023-09-19T08:28:06;16.95;;;9.30;;
61907;SDS011;47864;52.526;19.672;2023-09-19T08:30:08;19.20;;;9.88;;
61907;SDS011;47864;52.526;19.672;2023-09-19T08:32:10;17.40;;;9.95;;
61907;SDS011;47864;52.526;19.672;2023-09-19T08:34:11;13.30;;;9.43;;
61907;SDS011;47864;52.526;19.672;2023-09-19T08:36:13;17.23;;;9.52;;
61907;SDS011;47864;52.526;19.672;2023-09-19T08:38:15;14.48;;;9.75;;
61907;SDS011;47864;52.526;19.672;2023-09-19T08:40:16;15.15;;;9.00;;
61907;SDS011;47864;52.526;19.672;2023-09-19T08:42:18;14.15;;;8.70;;
61907;SDS011;47864;52.526;19.672;2023-09-19T08:44:20;16.83;;;9.38;;
61907;SDS011;47864;52.526;19.672;2023-09-19T08:46:21;16.38;;;9.40;;
61907;SDS011;47864;52.526;19.672;2023-09-19T08:48:28;16.00;;;8.48;;
61907;SDS011;47864;52.526;19.672;2023-09-19T08:52:41;12.82;;;8.80;;
61907;SDS011;47864;52.526;19.672;2023-09-19T08:54:43;13.73;;;8.32;;
61907;SDS011;47864;52.526;19.672;2023-09-19T08:56:48;14.55;;;8.60;;
61907;SDS011;47864;52.526;19.672;2023-09-19T08:58:53;16.92;;;8.63;;
61907;SDS011;47864;52.526;19.672;2023-09-19T09:00:57;14.40;;;8.27;;
61907;SDS011;47864;52.526;19.672;2023-09-19T09:02:59;17.65;;;8.77;;
61907;SDS011;47864;52.526;19.672;2023-09-19T09:05:04;14.85;;;8.32;;
61907;SDS011;47864;52.526;19.672;2023-09-19T09:07:14;11.25;;;7.70;;
61907;SDS011;47864;52.526;19.672;2023-09-19T09:09:15;15.32;;;8.93;;
61907;SDS011;47864;52.526;19.672;2023-09-19T09:11:18;16.30;;;8.00;;
61907;SDS011;47864;52.526;19.672;2023-09-19T09:13:20;13.88;;;8.90;;
61907;SDS011;47864;52.526;19.672;2023-09-19T09:15:22;14.95;;;8.05;;
61907;SDS011;47864;52.526;19.672;2023-09-19T09:17:25;12.60;;;7.90;;
61907;SDS011;47864;52.526;19.672;2023-09-19T09:19:27;12.38;;;7.40;;
61907;SDS011;47864;52.526;19.672;2023-09-19T09:21:28;10.88;;;7.20;;
61907;SDS011;47864;52.526;19.672;2023-09-19T09:23:30;10.48;;;6.70;;
61907;SDS011;47864;52.526;19.672;2023-09-19T09:25:48;14.43;;;7.32;;
61907;SDS011;47864;52.526;19.672;2023-09-19T09:28:00;10.10;;;6.35;;
61907;SDS011;47864;52.526;19.672;2023-09-19T09:30:03;12.23;;;6.90;;
61907;SDS011;47864;52.526;19.672;2023-09-19T09:34:31;13.02;;;6.93;;
61907;SDS011;47864;52.526;19.672;2023-09-19T09:36:34;10.65;;;6.40;;
61907;SDS011;47864;52.526;19.672;2023-09-19T09:38:44;8.18;;;6.40;;
61907;SDS011;47864;52.526;19.672;2023-09-19T09:40:50;9.82;;;6.50;;
61907;SDS011;47864;52.526;19.672;2023-09-19T09:42:53;10.02;;;7.03;;
61907;SDS011;47864;52.526;19.672;2023-09-19T09:47:14;9.77;;;6.70;;
61907;SDS011;47864;52.526;19.672;2023-09-19T09:49:42;10.20;;;6.45;;
61907;SDS011;47864;52.526;19.672;2023-09-19T09:51:50;10.57;;;6.78;;
61907;SDS011;47864;52.526;19.672;2023-09-19T09:54:12;9.65;;;6.13;;
61907;SDS011;47864;52.526;19.672;2023-09-19T09:56:14;10.18;;;6.40;;
61907;SDS011;47864;52.526;19.672;2023-09-19T09:58:16;10.48;;;6.35;;
61907;SDS011;47864;52.526;19.672;2023-09-19T10:00:19;7.80;;;6.10;;
61907;SDS011;47864;52.526;19.672;2023-09-19T10:02:21;8.05;;;5.55;;
61907;SDS011;47864;52.526;19.672;2023-09-19T10:04:28;9.98;;;5.55;;
61907;SDS011;47864;52.526;19.672;2023-09-19T10:06:39;8.52;;;5.78;;
61907;SDS011;47864;52.526;19.672;2023-09-19T10:08:56;8.45;;;5.90;;
61907;SDS011;47864;52.526;19.672;2023-09-19T10:10:59;12.10;;;5.90;;
61907;SDS011;47864;52.526;19.672;2023-09-19T10:13:00;11.02;;;5.45;;
61907;SDS011;47864;52.526;19.672;2023-09-19T10:15:02;8.07;;;5.38;;
61907;SDS011;47864;52.526;19.672;2023-09-19T10:17:05;8.63;;;6.05;;
61907;SDS011;47864;52.526;19.672;2023-09-19T10:19:07;7.50;;;5.72;;
61907;SDS011;47864;52.526;19.672;2023-09-19T10:21:09;9.98;;;5.70;;
61907;SDS011;47864;52.526;19.672;2023-09-19T10:23:12;7.10;;;5.30;;
61907;SDS011;47864;52.526;19.672;2023-09-19T10:25:13;8.27;;;5.15;;
61907;SDS011;47864;52.526;19.672;2023-09-19T10:27:15;10.27;;;5.55;;
61907;SDS011;47864;52.526;19.672;2023-09-19T10:29:17;10.73;;;5.75;;
61907;SDS011;47864;52.526;19.672;2023-09-19T10:31:19;8.75;;;5.88;;
61907;SDS011;47864;52.526;19.672;2023-09-19T10:33:23;9.05;;;5.20;;
61907;SDS011;47864;52.526;19.672;2023-09-19T10:35:25;7.55;;;5.30;;
61907;SDS011;47864;52.526;19.672;2023-09-19T10:37:27;7.70;;;5.50;;
61907;SDS011;47864;52.526;19.672;2023-09-19T10:39:32;10.48;;;6.25;;
61907;SDS011;47864;52.526;19.672;2023-09-19T10:41:34;9.73;;;6.07;;
61907;SDS011;47864;52.526;19.672;2023-09-19T10:43:36;10.95;;;5.55;;
61907;SDS011;47864;52.526;19.672;2023-09-19T10:45:40;9.20;;;6.28;;
61907;SDS011;47864;52.526;19.672;2023-09-19T10:47:43;7.47;;;5.50;;
61907;SDS011;47864;52.526;19.672;2023-09-19T10:49:45;7.07;;;5.20;;
61907;SDS011;47864;52.526;19.672;2023-09-19T10:51:49;9.50;;;5.95;;
61907;SDS011;47864;52.526;19.672;2023-09-19T10:53:55;8.35;;;4.95;;
61907;SDS011;47864;52.526;19.672;2023-09-19T10:56:01;8.90;;;4.85;;
61907;SDS011;47864;52.526;19.672;2023-09-19T10:58:04;7.25;;;5.38;;
61907;SDS011;47864;52.526;19.672;2023-09-19T11:02:15;8.30;;;5.55;;
61907;SDS011;47864;52.526;19.672;2023-09-19T11:04:31;8.00;;;5.13;;
61907;SDS011;47864;52.526;19.672;2023-09-19T11:06:34;7.93;;;5.25;;
61907;SDS011;47864;52.526;19.672;2023-09-19T11:11:00;10.50;;;5.93;;
61907;SDS011;47864;52.526;19.672;2023-09-19T11:13:22;8.60;;;5.47;;
61907;SDS011;47864;52.526;19.672;2023-09-19T11:17:59;8.82;;;5.82;;
61907;SDS011;47864;52.526;19.672;2023-09-19T11:22:06;9.55;;;5.50;;
61907;SDS011;47864;52.526;19.672;2023-09-19T11:28:46;9.50;;;5.97;;
61907;SDS011;47864;52.526;19.672;2023-09-19T11:30:48;8.68;;;5.63;;
61907;SDS011;47864;52.526;19.672;2023-09-19T11:35:18;12.45;;;6.18;;
61907;SDS011;47864;52.526;19.672;2023-09-19T11:39:30;11.23;;;6.00;;
61907;SDS011;47864;52.526;19.672;2023-09-19T11:41:41;6.88;;;4.88;;
61907;SDS011;47864;52.526;19.672;2023-09-19T11:43:43;9.13;;;5.90;;
61907;SDS011;47864;52.526;19.672;2023-09-19T11:46:01;9.98;;;5.55;;
61907;SDS011;47864;52.526;19.672;2023-09-19T11:48:02;10.18;;;5.32;;
61907;SDS011;47864;52.526;19.672;2023-09-19T11:50:06;9.45;;;5.15;;
61907;SDS011;47864;52.526;19.672;2023-09-19T11:52:08;8.02;;;4.30;;
61907;SDS011;47864;52.526;19.672;2023-09-19T11:54:11;6.80;;;4.80;;
61907;SDS011;47864;52.526;19.672;2023-09-19T11:56:15;6.80;;;4.07;;
61907;SDS011;47864;52.526;19.672;2023-09-19T11:58:17;7.38;;;4.00;;
61907;SDS011;47864;52.526;19.672;2023-09-19T12:00:19;9.50;;;3.95;;
61907;SDS011;47864;52.526;19.672;2023-09-19T12:02:39;6.18;;;4.13;;
61907;SDS011;47864;52.526;19.672;2023-09-19T12:04:48;6.22;;;3.90;;
61907;SDS011;47864;52.526;19.672;2023-09-19T12:06:57;8.52;;;3.92;;
61907;SDS011;47864;52.526;19.672;2023-09-19T12:08:59;9.80;;;4.20;;
61907;SDS011;47864;52.526;19.672;2023-09-19T12:11:01;7.30;;;4.85;;
61907;SDS011;47864;52.526;19.672;2023-09-19T12:13:03;7.85;;;4.55;;
61907;SDS011;47864;52.526;19.672;2023-09-19T12:15:04;7.72;;;4.07;;
61907;SDS011;47864;52.526;19.672;2023-09-19T12:17:06;6.07;;;4.20;;
61907;SDS011;47864;52.526;19.672;2023-09-19T12:19:17;7.38;;;4.00;;
61907;SDS011;47864;52.526;19.672;2023-09-19T12:21:23;9.10;;;4.25;;
61907;SDS011;47864;52.526;19.672;2023-09-19T12:23:25;5.78;;;3.63;;
61907;SDS011;47864;52.526;19.672;2023-09-19T12:25:30;6.97;;;3.65;;
61907;SDS011;47864;52.526;19.672;2023-09-19T12:29:48;6.20;;;3.53;;
61907;SDS011;47864;52.526;19.672;2023-09-19T12:31:56;6.43;;;3.30;;
61907;SDS011;47864;52.526;19.672;2023-09-19T12:33:59;6.88;;;3.10;;
61907;SDS011;47864;52.526;19.672;2023-09-19T12:36:05;6.07;;;3.03;;